createdAt,value
2023-04-12T00:03:02.551Z,31.9
2023-04-12T00:08:54.628Z,31.9
2023-04-12T00:14:46.418Z,31.9
2023-04-12T00:20:23.198Z,31.8
2023-04-12T00:26:14.059Z,31.8
2023-04-12T00:32:05.662Z,31.8
2023-04-12T00:37:57.443Z,31.7
2023-04-12T00:43:33.244Z,31.7
2023-04-12T00:48:54.211Z,31.6
2023-04-12T00:54:30.626Z,31.6
2023-04-12T01:00:21.051Z,31.6
2023-04-12T01:05:58.910Z,31.7
2023-04-12T01:11:51.060Z,32.2
2023-04-12T01:17:41.885Z,32.6
2023-04-12T01:23:17.789Z,32.9
2023-04-12T01:28:53.392Z,33.4
2023-04-12T01:34:14.294Z,33.8
2023-04-12T01:39:50.618Z,34.3
2023-04-12T01:45:26.387Z,34.7
2023-04-12T01:51:02.287Z,35.2
2023-04-12T01:56:40.502Z,35.7
2023-04-12T02:02:17.122Z,36.2
2023-04-12T02:07:55.260Z,36.4
2023-04-12T02:13:31.151Z,36.8
2023-04-12T02:19:07.824Z,36.8
2023-04-12T02:24:42.733Z,37
2023-04-12T02:30:18.460Z,37.2
2023-04-12T02:35:23.677Z,37.4
2023-04-12T02:40:59.639Z,37.4
2023-04-12T02:46:20.779Z,37.5
2023-04-12T02:51:43.004Z,37.5
2023-04-12T02:57:19.363Z,37.6
2023-04-12T03:02:56.707Z,37.6
2023-04-12T03:08:33.479Z,37.6
2023-04-12T03:14:09.297Z,37.6
2023-04-12T03:19:46.123Z,37.6
2023-04-12T03:25:22.440Z,37.6
2023-04-12T03:30:57.864Z,37.6
2023-04-12T03:36:34.264Z,37.5
2023-04-12T03:42:18.666Z,37.5
2023-04-12T03:47:49.599Z,37.4
2023-04-12T03:53:38.167Z,37.4
2023-04-12T03:59:15.193Z,37.4
2023-04-12T04:04:53.718Z,37.3
2023-04-12T04:10:30.648Z,37.3
2023-04-12T04:16:07.245Z,37.3
2023-04-12T04:21:42.791Z,37.2
2023-04-12T04:27:03.688Z,37.2
2023-04-12T04:32:39.900Z,37.1
2023-04-12T04:38:15.836Z,37.1
2023-04-12T04:43:52.041Z,37.1
2023-04-12T04:49:27.749Z,37
2023-04-12T04:55:06.492Z,36.9
2023-04-12T05:00:43.447Z,36.9
2023-04-12T05:06:22.727Z,36.9
2023-04-12T05:12:14.194Z,36.8
2023-04-12T05:18:12.234Z,36.8
2023-04-12T05:23:48.829Z,36.7
2023-04-12T05:29:24.302Z,36.6
2023-04-12T05:34:59.981Z,36.6
2023-04-12T05:40:35.734Z,36.5
2023-04-12T05:46:12.125Z,36.4
2023-04-12T05:51:57.851Z,36.4
2023-04-12T05:57:34.031Z,36.4
2023-04-12T06:03:11.545Z,36.3
2023-04-12T06:09:03.545Z,36.3
2023-04-12T06:14:39.173Z,36.3
2023-04-12T06:20:15.220Z,36.2
2023-04-12T06:25:51.762Z,36.1
2023-04-12T06:31:27.589Z,36
2023-04-12T06:37:04.152Z,35.9
2023-04-12T06:42:40.256Z,35.8
2023-04-12T06:48:16.789Z,35.8
2023-04-12T06:53:53.699Z,35.6
2023-04-12T06:58:59.592Z,35.5
2023-04-12T07:04:38.491Z,35.4
2023-04-12T07:10:08.863Z,35.3
2023-04-12T07:15:39.807Z,35.3
2023-04-12T07:21:17.190Z,35.2
2023-04-12T07:26:37.420Z,35
2023-04-12T07:32:14.005Z,51.7
2023-04-12T07:38:07.041Z,49.3
2023-04-12T07:43:44.934Z,46.8
2023-04-12T07:49:09.632Z,44.9
2023-04-12T07:54:46.145Z,53.2
2023-04-12T08:00:24.096Z,53.5
2023-04-12T08:06:05.403Z,53.4
2023-04-12T08:11:41.754Z,52.7
2023-04-12T08:17:18.571Z,52.6
2023-04-12T08:22:54.785Z,54.1
2023-04-12T08:28:31.625Z,55.2
2023-04-12T08:34:08.405Z,56.3
2023-04-12T08:40:15.831Z,57.1
2023-04-12T08:46:08.895Z,57.8
2023-04-12T08:52:00.396Z,58.4
2023-04-12T08:57:52.773Z,59
2023-04-12T09:03:48.492Z,59.5
2023-04-12T09:09:25.008Z,60
2023-04-12T09:15:04.468Z,60.4
2023-04-12T09:20:41.545Z,60.9
2023-04-12T09:26:32.583Z,61.3
2023-04-12T09:32:24.456Z,61.6
2023-04-12T09:38:01.904Z,62.1
2023-04-12T09:44:11.493Z,62.6
2023-04-12T09:50:04.144Z,63.1
2023-04-12T09:55:56.758Z,63.6
2023-04-12T10:01:50.927Z,64
2023-04-12T10:07:48.252Z,64.3
2023-04-12T10:13:25.333Z,64.8
2023-04-12T10:19:20.117Z,65.2
2023-04-12T10:25:15.157Z,65.5
2023-04-12T10:31:07.403Z,65.9
2023-04-12T10:37:00.631Z,66.3
2023-04-12T10:42:52.536Z,66.6
2023-04-12T10:48:44.518Z,66.9
2023-04-12T10:54:36.065Z,67.3
2023-04-12T11:00:37.225Z,67.6
2023-04-12T11:06:29.028Z,67.9
2023-04-12T11:12:20.986Z,68.1
2023-04-12T11:18:14.199Z,68.1
2023-04-12T11:24:06.504Z,68.5
2023-04-12T11:29:55.017Z,68.7
2023-04-12T11:35:47.909Z,68.8
2023-04-12T11:41:41.413Z,69
2023-04-12T11:47:47.510Z,68.9
2023-04-12T11:53:52.631Z,69.1
2023-04-12T11:59:29.364Z,69.3
2023-04-12T12:05:41.531Z,69.4
2023-04-12T12:11:57.875Z,69.4
2023-04-12T12:17:50.532Z,68.9
2023-04-12T12:23:42.008Z,68.6
2023-04-12T12:29:50.161Z,68.9
2023-04-12T12:35:59.932Z,68.9
2023-04-12T12:41:56.349Z,68.6
2023-04-12T12:48:12.677Z,68.6
2023-04-12T12:54:04.886Z,68.4
2023-04-12T13:00:15.254Z,68.1
2023-04-12T13:06:10.131Z,67.9
2023-04-12T13:12:03.030Z,67.6
2023-04-12T13:18:07.852Z,67.3
2023-04-12T13:24:01.792Z,66.8
2023-04-12T13:29:54.157Z,66.4
2023-04-12T13:35:33.826Z,65.9
2023-04-12T13:41:28.036Z,65.4
2023-04-12T13:47:20.262Z,64.8
2023-04-12T13:53:13.453Z,64.3
2023-04-12T13:59:05.574Z,63.6
2023-04-12T14:05:00.879Z,62.9
2023-04-12T14:10:53.017Z,62.3
2023-04-12T14:16:30.086Z,61.5
2023-04-12T14:22:23.014Z,60.1
2023-04-12T14:28:15.082Z,56.9
2023-04-12T14:34:09.221Z,53.6
2023-04-12T14:40:02.984Z,51.3
2023-04-12T14:45:55.751Z,49.7
2023-04-12T14:51:47.449Z,48.4
2023-04-12T14:57:47.317Z,47.3
2023-04-12T15:03:40.833Z,46.4
2023-04-12T15:09:33.818Z,45.6
2023-04-12T15:15:28.889Z,44.8
2023-04-12T15:21:30.321Z,44.2
2023-04-12T15:27:23.187Z,43.6
2023-04-12T15:33:15.634Z,43
2023-04-12T15:38:56.376Z,42.4
2023-04-12T15:44:47.737Z,41.9
2023-04-12T15:50:50.721Z,41.3
2023-04-12T15:56:42.090Z,40.8
2023-04-12T16:02:36.400Z,40.4
2023-04-12T16:08:30.232Z,40
2023-04-12T16:14:06.164Z,39.6
2023-04-12T16:19:58.378Z,39.3
2023-04-12T16:25:34.206Z,39
2023-04-12T16:31:27.101Z,38.7
2023-04-12T16:37:05.571Z,38.4
2023-04-12T16:42:57.699Z,38.2
2023-04-12T16:48:49.920Z,37.9
2023-04-12T16:54:44.408Z,37.5
2023-04-12T17:00:36.029Z,36.9
2023-04-12T17:06:28.899Z,35.8
2023-04-12T17:12:21.041Z,34.8
2023-04-12T17:18:13.404Z,33.9
2023-04-12T17:24:07.963Z,33.3
2023-04-12T17:30:00.037Z,32.5
2023-04-12T17:35:36.903Z,31.9
2023-04-12T17:41:31.779Z,31.5
2023-04-12T17:47:24.546Z,31.1
2023-04-12T17:53:16.645Z,30.8
2023-04-12T17:59:07.790Z,30.5
2023-04-12T18:05:02.482Z,30.3
2023-04-12T18:10:54.680Z,30.1
2023-04-12T18:16:46.810Z,29.9
2023-04-12T18:22:39.051Z,29.8
2023-04-12T18:28:33.205Z,29.6
2023-04-12T18:34:25.703Z,29.4
2023-04-12T18:40:17.524Z,29
2023-04-12T18:46:09.774Z,28.4
2023-04-12T18:52:02.346Z,27.7
2023-04-12T18:57:40.574Z,27.3
2023-04-12T19:03:54.941Z,26.8
2023-04-12T19:09:49.122Z,26.4
2023-04-12T19:15:42.194Z,26.2
2023-04-12T19:21:35.093Z,25.8
2023-04-12T19:27:31.123Z,25.3
2023-04-12T19:33:25.066Z,24.9
2023-04-12T19:39:21.143Z,24.6
2023-04-12T19:45:16.555Z,24.3
2023-04-12T19:51:10.815Z,24.1
2023-04-12T19:57:03.918Z,23.9
2023-04-12T20:02:57.639Z,23.8
2023-04-12T20:08:50.956Z,23.6
2023-04-12T20:14:43.711Z,23.5
2023-04-12T20:20:21.838Z,23.5
2023-04-12T20:26:13.778Z,23.4
2023-04-12T20:32:06.127Z,23.2
2023-04-12T20:37:58.010Z,23.3
2023-04-12T20:43:50.279Z,23.2
2023-04-12T20:49:43.536Z,23.1
2023-04-12T20:55:36.169Z,23
2023-04-12T21:09:01.641Z,22.9
2023-04-12T21:14:37.559Z,22.9
2023-04-12T21:20:29.115Z,22.9
2023-04-12T21:26:19.943Z,22.9
2023-04-12T21:32:11.816Z,22.8
2023-04-12T21:38:03.457Z,22.8
2023-04-12T21:43:54.841Z,22.8
2023-04-12T21:49:46.936Z,22.8
2023-04-12T21:55:41.860Z,22.8
2023-04-12T22:01:35.690Z,22.8
2023-04-12T22:07:25.700Z,22.7
2023-04-12T22:13:01.838Z,22.7
2023-04-12T22:18:53.656Z,22.6
2023-04-12T22:24:29.754Z,22.6
2023-04-12T22:30:06.558Z,22.6
2023-04-12T22:35:56.658Z,22.6
2023-04-12T22:41:48.877Z,22.6
2023-04-12T22:47:40.461Z,22.6
2023-04-12T22:53:31.720Z,22.6
2023-04-12T22:59:23.420Z,22.6
2023-04-12T23:05:19.453Z,22.6
2023-04-12T23:11:10.088Z,22.6
2023-04-12T23:16:46.352Z,22.5
2023-04-12T23:22:22.529Z,22.5
2023-04-12T23:28:14.496Z,22.6
2023-04-12T23:33:51.389Z,22.5
2023-04-12T23:39:42.369Z,22.5
2023-04-12T23:45:33.007Z,22.5
2023-04-12T23:51:24.805Z,22.5
2023-04-12T23:57:17.058Z,22.5
